Time;durP1;ratioP1;P1;durP2;ratioP2;P2;SDS_P1;SDS_P2;PMS_P1;PMS_P2;Temp;Humidity;BMP_temperature;BMP_pressure;BME280_temperature;BME280_humidity;BME280_pressure;Samples;Min_cycle;Max_cycle;Signal;HPM_P1;HPM_P2
2022/09/07 00:02:03;;;;;;;;;;;22.30;82.40;;;;;;5098365;28;20363;-56
2022/09/07 00:04:28;;;;;;;;;;;22.30;82.30;;;;;;5098670;28;19919;-55
2022/09/07 00:06:54;;;;;;;;;;;22.30;82.40;;;;;;5097852;28;19908;-54
2022/09/07 00:09:19;;;;;;;;;;;22.30;82.40;;;;;;5097867;28;19908;-54
2022/09/07 00:11:45;;;;;;;;;;;22.30;82.40;;;;;;5097581;28;19916;-53
2022/09/07 00:14:11;;;;;;;;;;;22.30;82.40;;;;;;5098024;28;19958;-53
2022/09/07 00:16:36;;;;;;;;;;;22.30;82.30;;;;;;5098009;28;19908;-54
2022/09/07 00:19:02;;;;;;;;;;;22.30;82.40;;;;;;5097614;28;19908;-55
2022/09/07 00:21:28;;;;;;;;;;;22.30;82.40;;;;;;5096610;28;19908;-56
2022/09/07 00:23:54;;;;;;;;;;;22.30;82.40;;;;;;5097793;28;20424;-56
2022/09/07 00:26:24;;;;;;;;;;;22.30;82.40;;;;;;5097813;28;19915;-53
2022/09/07 00:28:50;;;;;;;;;;;22.30;82.40;;;;;;5097465;28;19915;-51
2022/09/07 00:31:17;;;;;;;;;;;22.30;82.40;;;;;;5096328;28;19916;-54
2022/09/07 00:33:43;;;;;;;;;;;22.30;82.40;;;;;;5097590;28;19988;-53
2022/09/07 00:36:09;;;;;;;;;;;22.30;82.40;;;;;;5097901;28;19915;-55
2022/09/07 00:38:34;;;;;;;;;;;22.30;82.40;;;;;;5097554;28;19908;-54
2022/09/07 00:41:00;;;;;;;;;;;22.30;82.40;;;;;;5097797;28;19908;-53
2022/09/07 00:43:34;;;;;;;;;;;22.30;82.30;;;;;;5097370;28;19962;-52
2022/09/07 00:46:00;;;;;;;;;;;22.30;82.30;;;;;;5097277;28;19987;-52
2022/09/07 00:48:52;;;;;;;;;;;22.30;82.40;;;;;;5097677;28;20053;-55
2022/09/07 00:51:20;;;;;;;;;;;22.30;82.30;;;;;;5080486;28;20394;-56
2022/09/07 00:53:52;;;;;;;;;;;22.30;82.30;;;;;;5097280;28;19915;-53
2022/09/07 00:56:18;;;;;;;;;;;22.30;82.30;;;;;;5097591;28;19924;-55
2022/09/07 00:58:45;;;;;;;;;;;22.30;82.40;;;;;;5096852;28;19915;-55
2022/09/07 01:01:11;;;;;;;;;;;22.30;82.30;;;;;;5097182;28;20405;-52
2022/09/07 01:03:38;;;;;;;;;;;22.30;82.30;;;;;;5096763;28;19928;-53
2022/09/07 01:06:24;;;;;;;;;;;22.30;82.40;;;;;;5096752;28;19943;-54
2022/09/07 01:08:50;;;;;;;;;;;22.30;82.30;;;;;;5096564;28;19908;-53
2022/09/07 01:11:17;;;;;;;;;;;22.30;82.40;;;;;;5096562;28;20007;-54
2022/09/07 01:13:43;;;;;;;;;;;22.30;82.40;;;;;;5097261;28;19958;-53
2022/09/07 01:16:18;;;;;;;;;;;22.30;82.40;;;;;;5096715;28;20350;-53
2022/09/07 01:19:02;;;;;;;;;;;22.30;82.40;;;;;;5096525;28;19909;-51
2022/09/07 01:21:44;;;;;;;;;;;22.30;82.40;;;;;;5096736;28;19952;-52
2022/09/07 01:24:12;;;;;;;;;;;22.30;82.40;;;;;;5096824;28;19908;-55
2022/09/07 01:26:57;;;;;;;;;;;22.30;82.40;;;;;;5095401;28;19914;-52
2022/09/07 01:29:27;;;;;;;;;;;22.30;82.40;;;;;;5096586;28;19909;-56
2022/09/07 01:32:01;;;;;;;;;;;22.30;82.40;;;;;;5096496;28;20015;-54
2022/09/07 01:34:27;;;;;;;;;;;22.30;82.40;;;;;;5096884;28;19920;-56
2022/09/07 01:37:11;;;;;;;;;;;22.30;82.40;;;;;;5096402;28;19939;-54
2022/09/07 01:39:45;;;;;;;;;;;22.40;82.50;;;;;;5096078;28;20335;-54
2022/09/07 01:42:12;;;;;;;;;;;22.30;82.40;;;;;;5096290;28;19914;-55
2022/09/07 01:44:37;;;;;;;;;;;22.30;82.40;;;;;;5096268;28;19999;-52
2022/09/07 01:47:03;;;;;;;;;;;22.30;82.40;;;;;;5095111;28;19970;-55
2022/09/07 01:49:33;;;;;;;;;;;22.30;82.40;;;;;;5094948;28;20370;-54
2022/09/07 01:52:06;;;;;;;;;;;22.30;82.40;;;;;;5096297;28;19920;-53
2022/09/07 01:54:33;;;;;;;;;;;22.30;82.40;;;;;;5096027;28;19922;-56
2022/09/07 01:57:06;;;;;;;;;;;22.40;82.50;;;;;;5094727;28;19915;-54
2022/09/07 01:59:34;;;;;;;;;;;22.30;82.40;;;;;;5095671;28;19912;-56
2022/09/07 02:01:59;;;;;;;;;;;22.30;82.40;;;;;;5094629;28;19908;-56
2022/09/07 02:04:57;;;;;;;;;;;22.40;82.50;;;;;;5095885;28;20406;-53
2022/09/07 02:07:26;;;;;;;;;;;22.40;82.50;;;;;;5072374;28;19908;-55
2022/09/07 02:09:54;;;;;;;;;;;22.40;82.50;;;;;;5095841;28;20410;-51
2022/09/07 02:12:29;;;;;;;;;;;22.30;82.40;;;;;;5095489;28;19916;-55
2022/09/07 02:14:58;;;;;;;;;;;22.40;82.50;;;;;;5095324;28;20375;-55
2022/09/07 02:17:23;;;;;;;;;;;22.40;82.40;;;;;;5095342;28;19915;-54
2022/09/07 02:19:51;;;;;;;;;;;22.40;82.40;;;;;;5095077;28;20339;-55
2022/09/07 02:22:19;;;;;;;;;;;22.40;82.40;;;;;;5095528;28;19908;-56
2022/09/07 02:24:48;;;;;;;;;;;22.40;82.40;;;;;;5095441;28;19912;-51
2022/09/07 02:27:16;;;;;;;;;;;22.40;82.40;;;;;;5095074;28;20385;-53
2022/09/07 02:29:42;;;;;;;;;;;22.40;82.50;;;;;;5095384;28;19912;-55
2022/09/07 02:32:08;;;;;;;;;;;22.40;82.50;;;;;;5095007;28;19913;-56
2022/09/07 02:34:33;;;;;;;;;;;22.40;82.50;;;;;;5095024;28;19919;-55
2022/09/07 02:37:00;;;;;;;;;;;22.40;82.50;;;;;;5095194;28;19908;-56
2022/09/07 02:39:26;;;;;;;;;;;22.30;82.40;;;;;;5094852;28;19908;-56
2022/09/07 02:41:51;;;;;;;;;;;22.30;82.40;;;;;;5093856;28;19919;-56
2022/09/07 02:44:16;;;;;;;;;;;22.40;82.50;;;;;;5095147;28;20391;-52
2022/09/07 02:46:57;;;;;;;;;;;22.30;82.40;;;;;;5094709;28;19943;-55
2022/09/07 02:49:42;;;;;;;;;;;22.40;82.50;;;;;;5093744;28;19957;-55
2022/09/07 02:52:22;;;;;;;;;;;22.40;82.50;;;;;;5095069;28;19919;-55
2022/09/07 02:54:57;;;;;;;;;;;22.40;82.50;;;;;;5095015;28;19999;-53
2022/09/07 02:57:41;;;;;;;;;;;22.40;82.50;;;;;;5093684;28;19961;-53
2022/09/07 03:00:10;;;;;;;;;;;22.40;82.50;;;;;;5094884;28;19908;-54
2022/09/07 03:02:38;;;;;;;;;;;22.40;82.50;;;;;;5093385;28;19921;-54
2022/09/07 03:05:17;;;;;;;;;;;22.40;82.50;;;;;;5094816;28;19995;-53
2022/09/07 03:07:49;;;;;;;;;;;22.40;82.50;;;;;;5094724;28;19915;-56
2022/09/07 03:10:15;;;;;;;;;;;22.40;82.50;;;;;;5094675;28;19946;-52
2022/09/07 03:12:43;;;;;;;;;;;22.40;82.50;;;;;;5094632;28;19962;-54
2022/09/07 03:15:13;;;;;;;;;;;22.40;82.50;;;;;;5094536;28;20338;-51
2022/09/07 03:17:39;;;;;;;;;;;22.40;82.50;;;;;;5094386;28;19962;-56
2022/09/07 03:20:05;;;;;;;;;;;22.40;82.50;;;;;;5094546;28;19908;-56
2022/09/07 03:22:32;;;;;;;;;;;22.40;82.50;;;;;;5094440;28;20374;-56
2022/09/07 03:24:57;;;;;;;;;;;22.40;82.50;;;;;;5093193;28;19908;-54
2022/09/07 03:27:23;;;;;;;;;;;22.40;82.50;;;;;;5094264;28;19908;-53
2022/09/07 03:29:48;;;;;;;;;;;22.40;82.50;;;;;;5094148;28;19915;-54
2022/09/07 03:32:14;;;;;;;;;;;22.40;82.50;;;;;;5093269;28;19915;-54
2022/09/07 03:34:39;;;;;;;;;;;22.40;82.50;;;;;;5094214;28;20251;-53
2022/09/07 03:37:05;;;;;;;;;;;22.40;82.50;;;;;;5094315;28;19954;-55
2022/09/07 03:39:30;;;;;;;;;;;22.40;82.50;;;;;;5093847;28;20341;-51
2022/09/07 03:41:56;;;;;;;;;;;22.40;82.50;;;;;;5094311;28;19994;-55
2022/09/07 03:44:21;;;;;;;;;;;22.40;82.50;;;;;;5093876;28;19915;-55
2022/09/07 03:46:47;;;;;;;;;;;22.40;82.50;;;;;;5094211;28;19909;-55
2022/09/07 03:49:13;;;;;;;;;;;22.40;82.50;;;;;;5093877;28;20002;-55
2022/09/07 03:51:39;;;;;;;;;;;22.40;82.60;;;;;;5094066;28;19957;-55
2022/09/07 03:54:04;;;;;;;;;;;22.40;82.50;;;;;;5093756;28;19912;-53
2022/09/07 03:56:30;;;;;;;;;;;22.40;82.50;;;;;;5093945;28;20274;-56
2022/09/07 03:58:55;;;;;;;;;;;22.40;82.50;;;;;;5093797;28;19915;-55
2022/09/07 04:01:22;;;;;;;;;;;22.40;82.50;;;;;;5094086;28;20018;-56
2022/09/07 04:03:48;;;;;;;;;;;22.40;82.50;;;;;;5094213;28;19966;-54
2022/09/07 04:06:13;;;;;;;;;;;22.40;82.50;;;;;;5094333;28;20351;-54
2022/09/07 04:08:40;;;;;;;;;;;22.40;82.50;;;;;;5093713;28;19912;-56
2022/09/07 04:11:06;;;;;;;;;;;22.40;82.50;;;;;;5093876;28;19912;-55
2022/09/07 04:13:33;;;;;;;;;;;22.40;82.50;;;;;;5093747;28;19916;-56
2022/09/07 04:15:58;;;;;;;;;;;22.40;82.60;;;;;;5093696;28;20019;-55
2022/09/07 04:18:24;;;;;;;;;;;22.40;82.50;;;;;;5092600;28;19932;-51
2022/09/07 04:20:50;;;;;;;;;;;22.40;82.60;;;;;;5093638;28;19908;-54
2022/09/07 04:23:16;;;;;;;;;;;22.40;82.60;;;;;;5093780;28;20386;-53
2022/09/07 04:25:49;;;;;;;;;;;22.40;82.60;;;;;;5093670;28;19912;-54
2022/09/07 04:28:15;;;;;;;;;;;22.40;82.60;;;;;;5092577;28;19908;-54
2022/09/07 04:30:40;;;;;;;;;;;22.40;82.60;;;;;;5093651;28;19912;-54
2022/09/07 04:33:06;;;;;;;;;;;22.40;82.60;;;;;;5093357;28;20286;-55
2022/09/07 04:35:34;;;;;;;;;;;22.40;82.60;;;;;;5093335;28;20008;-49
2022/09/07 04:38:00;;;;;;;;;;;22.40;82.60;;;;;;5093617;28;19908;-53
2022/09/07 04:40:25;;;;;;;;;;;22.40;82.60;;;;;;5093697;28;20003;-55
2022/09/07 04:42:51;;;;;;;;;;;22.40;82.60;;;;;;5094501;28;19912;-56
2022/09/07 04:45:16;;;;;;;;;;;22.40;82.60;;;;;;5096720;28;19908;-54
2022/09/07 04:47:45;;;;;;;;;;;22.40;82.60;;;;;;5097119;28;20266;-54
2022/09/07 04:50:11;;;;;;;;;;;22.40;82.60;;;;;;5096748;28;19908;-53
2022/09/07 04:52:36;;;;;;;;;;;22.40;82.60;;;;;;5096759;28;19957;-55
2022/09/07 04:55:03;;;;;;;;;;;22.40;82.60;;;;;;5096695;28;19908;-54
2022/09/07 04:57:29;;;;;;;;;;;22.40;82.60;;;;;;5096924;28;19912;-51
2022/09/07 04:59:54;;;;;;;;;;;22.40;82.60;;;;;;5096612;28;19908;-55
2022/09/07 05:02:20;;;;;;;;;;;22.40;82.60;;;;;;5096381;28;19920;-55
2022/09/07 05:04:45;;;;;;;;;;;22.40;82.60;;;;;;5096544;28;19914;-54
2022/09/07 05:07:10;;;;;;;;;;;22.40;82.60;;;;;;5095481;28;19908;-55
2022/09/07 05:09:36;;;;;;;;;;;22.40;82.60;;;;;;5096498;28;19982;-55
2022/09/07 05:12:02;;;;;;;;;;;22.40;82.60;;;;;;5096595;28;19924;-54
2022/09/07 05:14:28;;;;;;;;;;;22.40;82.60;;;;;;5096331;28;20428;-54
2022/09/07 05:16:53;;;;;;;;;;;22.40;82.60;;;;;;5095382;28;19958;-54
2022/09/07 05:19:18;;;;;;;;;;;22.40;82.60;;;;;;5096104;28;19908;-54
2022/09/07 05:21:44;;;;;;;;;;;22.40;82.60;;;;;;5096253;28;19908;-55
2022/09/07 05:24:10;;;;;;;;;;;22.40;82.60;;;;;;5096342;28;19912;-56
2022/09/07 05:26:35;;;;;;;;;;;22.40;82.60;;;;;;5094951;28;20271;-54
2022/09/07 05:29:03;;;;;;;;;;;22.40;82.60;;;;;;5096073;28;19912;-53
2022/09/07 05:31:28;;;;;;;;;;;22.40;82.60;;;;;;5095729;28;19919;-55
2022/09/07 05:33:57;;;;;;;;;;;22.40;82.60;;;;;;5095863;28;19912;-53
2022/09/07 05:36:26;;;;;;;;;;;22.40;82.60;;;;;;5095553;28;19912;-55
2022/09/07 05:38:55;;;;;;;;;;;22.40;82.60;;;;;;5095632;28;20393;-50
2022/09/07 05:41:23;;;;;;;;;;;22.40;82.60;;;;;;5096459;28;20355;-51
2022/09/07 05:43:49;;;;;;;;;;;22.40;82.60;;;;;;5094693;28;19951;-55
2022/09/07 05:46:15;;;;;;;;;;;22.40;82.50;;;;;;5095564;28;19927;-54
2022/09/07 05:48:41;;;;;;;;;;;22.40;82.60;;;;;;5095741;28;19908;-53
2022/09/07 05:51:07;;;;;;;;;;;22.40;82.50;;;;;;5095433;28;19920;-53
2022/09/07 05:53:36;;;;;;;;;;;22.40;82.50;;;;;;5095096;28;20057;-56
2022/09/07 05:56:03;;;;;;;;;;;22.40;82.50;;;;;;5095031;28;20278;-55
2022/09/07 05:58:28;;;;;;;;;;;22.40;82.50;;;;;;5095706;28;20444;-54
2022/09/07 06:01:05;;;;;;;;;;;22.40;82.60;;;;;;5095475;28;19908;-51
2022/09/07 06:03:30;;;;;;;;;;;22.40;82.60;;;;;;5094332;28;19923;-51
2022/09/07 06:06:15;;;;;;;;;;;22.40;82.60;;;;;;5095615;28;20272;-54
2022/09/07 06:08:45;;;;;;;;;;;22.40;82.60;;;;;;5095828;28;19908;-52
2022/09/07 06:11:12;;;;;;;;;;;22.40;82.60;;;;;;5094145;28;20244;-55
2022/09/07 06:13:38;;;;;;;;;;;22.40;82.60;;;;;;5095157;28;19912;-52
2022/09/07 06:16:05;;;;;;;;;;;22.30;82.50;;;;;;5094998;28;19908;-55
2022/09/07 06:18:32;;;;;;;;;;;22.40;82.60;;;;;;5095075;28;19909;-55
2022/09/07 06:21:04;;;;;;;;;;;22.40;82.60;;;;;;5095053;28;20363;-55
2022/09/07 06:23:30;;;;;;;;;;;22.40;82.60;;;;;;5094899;28;19958;-55
2022/09/07 06:25:56;;;;;;;;;;;22.40;82.60;;;;;;5094525;28;19911;-55
2022/09/07 06:28:32;;;;;;;;;;;22.40;82.60;;;;;;5095058;28;19919;-52
2022/09/07 06:31:02;;;;;;;;;;;22.40;82.60;;;;;;5094671;28;19937;-56
2022/09/07 06:33:27;;;;;;;;;;;22.40;82.50;;;;;;5094730;28;19912;-53
2022/09/07 06:36:00;;;;;;;;;;;22.40;82.50;;;;;;5094844;28;20369;-55
2022/09/07 06:38:29;;;;;;;;;;;22.40;82.60;;;;;;5094615;28;19916;-53
2022/09/07 06:40:58;;;;;;;;;;;22.40;82.40;;;;;;5095018;28;19908;-54
2022/09/07 06:43:24;;;;;;;;;;;22.40;82.50;;;;;;5094783;28;19944;-53
2022/09/07 06:45:53;;;;;;;;;;;22.40;82.30;;;;;;5094729;28;19994;-52
2022/09/07 06:48:19;;;;;;;;;;;22.40;82.40;;;;;;5094896;28;19908;-51
2022/09/07 06:50:53;;;;;;;;;;;22.40;82.50;;;;;;5094350;28;19912;-56
2022/09/07 06:53:18;;;;;;;;;;;22.40;82.50;;;;;;5094426;28;19912;-53
2022/09/07 06:55:44;;;;;;;;;;;22.40;82.40;;;;;;5093250;28;19957;-56
2022/09/07 06:58:09;;;;;;;;;;;22.40;82.40;;;;;;5094514;28;19908;-51
2022/09/07 07:00:35;;;;;;;;;;;22.40;82.50;;;;;;5094480;28;19940;-53
2022/09/07 07:03:00;;;;;;;;;;;22.40;82.50;;;;;;5094022;28;19927;-54
2022/09/07 07:05:26;;;;;;;;;;;22.40;82.40;;;;;;5094147;28;19908;-56
2022/09/07 07:07:51;;;;;;;;;;;22.40;83.00;;;;;;5092960;28;19912;-56
2022/09/07 07:10:17;;;;;;;;;;;22.40;82.50;;;;;;5094367;28;19990;-55
2022/09/07 07:12:42;;;;;;;;;;;22.40;82.50;;;;;;5094528;28;19918;-56
2022/09/07 07:15:08;;;;;;;;;;;22.40;82.40;;;;;;5093137;28;19908;-52
2022/09/07 07:17:33;;;;;;;;;;;22.40;82.50;;;;;;5094338;28;20300;-56
2022/09/07 07:19:59;;;;;;;;;;;22.40;82.50;;;;;;5094196;28;20004;-55
2022/09/07 07:22:24;;;;;;;;;;;22.40;82.50;;;;;;5094214;28;19908;-55
2022/09/07 07:24:50;;;;;;;;;;;22.40;82.50;;;;;;5094226;28;19908;-54
2022/09/07 07:27:16;;;;;;;;;;;22.40;82.50;;;;;;5094283;28;19915;-56
2022/09/07 07:29:42;;;;;;;;;;;22.40;82.50;;;;;;5094039;28;19991;-53
2022/09/07 07:32:07;;;;;;;;;;;22.40;82.50;;;;;;5094056;28;20331;-55
2022/09/07 07:34:33;;;;;;;;;;;22.40;82.50;;;;;;5094160;28;20010;-56
2022/09/07 07:36:58;;;;;;;;;;;22.40;82.50;;;;;;5094045;28;19970;-56
2022/09/07 07:39:23;;;;;;;;;;;22.40;82.60;;;;;;5093940;28;20336;-55
2022/09/07 07:41:50;;;;;;;;;;;22.40;82.50;;;;;;5092633;28;19915;-55
2022/09/07 07:44:16;;;;;;;;;;;22.40;82.50;;;;;;5094058;28;19908;-56
2022/09/07 07:46:41;;;;;;;;;;;22.40;82.60;;;;;;5094077;28;19912;-56
2022/09/07 07:49:07;;;;;;;;;;;22.40;82.60;;;;;;5092577;28;19919;-56
2022/09/07 07:51:32;;;;;;;;;;;22.40;82.60;;;;;;5093825;28;19912;-56
2022/09/07 07:53:58;;;;;;;;;;;22.50;82.60;;;;;;5093722;28;19919;-56
2022/09/07 07:56:23;;;;;;;;;;;22.40;82.60;;;;;;5092678;28;20244;-52
2022/09/07 07:58:51;;;;;;;;;;;22.40;82.50;;;;;;5093568;28;19915;-53
2022/09/07 08:01:16;;;;;;;;;;;22.50;82.60;;;;;;5093893;28;19915;-53
2022/09/07 08:03:44;;;;;;;;;;;22.50;82.60;;;;;;5093870;28;20271;-56
2022/09/07 08:06:12;;;;;;;;;;;22.50;82.60;;;;;;5094139;28;20336;-53
2022/09/07 08:08:37;;;;;;;;;;;22.50;82.70;;;;;;5093934;28;19908;-54
2022/09/07 08:11:07;;;;;;;;;;;22.50;82.60;;;;;;5093491;28;19919;-55
2022/09/07 08:13:36;;;;;;;;;;;22.50;82.70;;;;;;5093625;28;19916;-56
2022/09/07 08:16:02;;;;;;;;;;;22.50;82.70;;;;;;5093631;28;19912;-55
2022/09/07 08:18:28;;;;;;;;;;;22.50;82.70;;;;;;5095673;28;20252;-53
2022/09/07 08:20:57;;;;;;;;;;;22.50;82.70;;;;;;5098003;28;19908;-56
2022/09/07 08:23:23;;;;;;;;;;;22.50;82.70;;;;;;5097564;28;19915;-51
2022/09/07 08:25:49;;;;;;;;;;;22.50;82.70;;;;;;5097439;28;19912;-54
2022/09/07 08:28:14;;;;;;;;;;;22.50;82.70;;;;;;5096113;28;19916;-54
2022/09/07 08:30:40;;;;;;;;;;;22.50;82.70;;;;;;5097027;28;20350;-56
2022/09/07 08:33:05;;;;;;;;;;;22.50;82.70;;;;;;5097236;28;19962;-55
2022/09/07 08:35:31;;;;;;;;;;;22.50;82.70;;;;;;5097218;28;20275;-54
2022/09/07 08:37:56;;;;;;;;;;;22.50;82.80;;;;;;5097151;28;20003;-55
2022/09/07 08:40:22;;;;;;;;;;;22.50;82.80;;;;;;5097059;28;19919;-57
2022/09/07 08:42:56;;;;;;;;;;;22.50;82.80;;;;;;5096999;28;19955;-53
2022/09/07 08:45:26;;;;;;;;;;;22.50;82.80;;;;;;5097163;28;19915;-56
2022/09/07 08:47:51;;;;;;;;;;;22.50;82.80;;;;;;5097100;28;19912;-56
2022/09/07 08:50:35;;;;;;;;;;;22.50;82.90;;;;;;5096753;28;20358;-55
2022/09/07 08:53:13;;;;;;;;;;;22.50;82.80;;;;;;5095786;28;19971;-55
2022/09/07 08:55:42;;;;;;;;;;;22.50;82.90;;;;;;5096941;28;19961;-57
2022/09/07 08:58:25;;;;;;;;;;;22.50;82.80;;;;;;5096701;28;20382;-54
2022/09/07 09:00:50;;;;;;;;;;;22.50;82.80;;;;;;5096686;28;19915;-53
2022/09/07 09:03:20;;;;;;;;;;;22.50;82.90;;;;;;5096581;28;19920;-55
2022/09/07 09:05:52;;;;;;;;;;;22.50;82.90;;;;;;5096418;28;19908;-55
2022/09/07 09:08:53;;;;;;;;;;;22.50;82.90;;;;;;5096673;28;19952;-57
2022/09/07 09:11:28;;;;;;;;;;;22.50;82.90;;;;;;5054172;28;19913;-57
2022/09/07 09:14:00;;;;;;;;;;;22.50;82.90;;;;;;5086397;28;19912;-58
2022/09/07 09:16:25;;;;;;;;;;;22.50;82.90;;;;;;5096241;28;19961;-56
2022/09/07 09:19:05;;;;;;;;;;;22.50;82.90;;;;;;5096315;28;19912;-56
2022/09/07 09:21:31;;;;;;;;;;;22.50;82.90;;;;;;5095199;28;20015;-56
2022/09/07 09:23:59;;;;;;;;;;;22.50;82.90;;;;;;5096129;28;20468;-55
2022/09/07 09:26:26;;;;;;;;;;;22.50;82.90;;;;;;5096528;28;19926;-56
2022/09/07 09:28:51;;;;;;;;;;;22.50;82.90;;;;;;5095497;28;20485;-54
2022/09/07 09:31:18;;;;;;;;;;;22.50;82.90;;;;;;5095735;28;19912;-54
2022/09/07 09:33:43;;;;;;;;;;;22.50;82.90;;;;;;5095699;28;19919;-55
2022/09/07 09:36:38;;;;;;;;;;;22.50;82.90;;;;;;5095914;28;19908;-54
2022/09/07 09:39:22;;;;;;;;;;;22.50;83.00;;;;;;5086707;28;19989;-55
2022/09/07 09:41:48;;;;;;;;;;;22.50;82.90;;;;;;5096207;28;19908;-56
2022/09/07 09:44:15;;;;;;;;;;;22.50;82.80;;;;;;5096305;28;20002;-56
2022/09/07 09:46:45;;;;;;;;;;;22.50;82.90;;;;;;5095903;28;20041;-55
2022/09/07 09:49:16;;;;;;;;;;;22.50;82.90;;;;;;5094831;28;19908;-55
2022/09/07 09:51:43;;;;;;;;;;;22.50;82.90;;;;;;5095441;28;20015;-57
2022/09/07 09:54:20;;;;;;;;;;;22.50;83.00;;;;;;5095907;28;19989;-54
2022/09/07 09:56:46;;;;;;;;;;;22.50;83.00;;;;;;5095854;28;19912;-53
2022/09/07 09:59:11;;;;;;;;;;;22.50;83.00;;;;;;5096236;28;20271;-54
2022/09/07 10:01:37;;;;;;;;;;;22.50;83.00;;;;;;5095567;28;20351;-55
2022/09/07 10:04:21;;;;;;;;;;;22.50;83.00;;;;;;5094349;28;19928;-56
2022/09/07 10:06:51;;;;;;;;;;;22.50;83.00;;;;;;5095620;28;19916;-53
2022/09/07 10:09:18;;;;;;;;;;;22.50;83.00;;;;;;5095706;28;19915;-54
2022/09/07 10:11:46;;;;;;;;;;;22.50;83.00;;;;;;5094414;28;19961;-53
2022/09/07 10:14:22;;;;;;;;;;;22.60;83.00;;;;;;5095267;28;19962;-54
2022/09/07 10:16:48;;;;;;;;;;;22.60;83.60;;;;;;5095515;28;19915;-56
2022/09/07 10:19:28;;;;;;;;;;;22.60;83.10;;;;;;5095213;28;19908;-54
2022/09/07 10:21:57;;;;;;;;;;;22.50;83.00;;;;;;5095380;28;19954;-52
2022/09/07 10:24:24;;;;;;;;;;;22.50;83.00;;;;;;5095053;28;20220;-52
2022/09/07 10:26:49;;;;;;;;;;;22.50;83.00;;;;;;5093715;28;19908;-53
2022/09/07 10:29:18;;;;;;;;;;;22.50;83.00;;;;;;5093771;28;20094;-54
2022/09/07 10:32:02;;;;;;;;;;;22.50;83.10;;;;;;5095170;28;19912;-51
2022/09/07 10:34:34;;;;;;;;;;;22.60;83.10;;;;;;5095021;28;20018;-55
2022/09/07 10:37:09;;;;;;;;;;;22.60;83.10;;;;;;5094766;28;19909;-53
2022/09/07 10:39:37;;;;;;;;;;;22.60;83.10;;;;;;5094857;28;20031;-53
2022/09/07 10:42:08;;;;;;;;;;;22.60;83.10;;;;;;5094612;28;20003;-55
2022/09/07 10:44:41;;;;;;;;;;;22.60;83.10;;;;;;5094632;28;19908;-53
2022/09/07 10:47:06;;;;;;;;;;;22.60;83.10;;;;;;5094473;28;20309;-55
2022/09/07 10:49:39;;;;;;;;;;;22.60;83.10;;;;;;5093497;28;19995;-55
2022/09/07 10:52:08;;;;;;;;;;;22.60;83.10;;;;;;5094731;28;20425;-55
2022/09/07 10:54:46;;;;;;;;;;;22.60;83.10;;;;;;5094692;28;19919;-53
2022/09/07 10:57:21;;;;;;;;;;;22.60;83.10;;;;;;5095029;28;19919;-55
2022/09/07 11:00:08;;;;;;;;;;;22.60;83.10;;;;;;5094399;28;19908;-55
2022/09/07 11:02:44;;;;;;;;;;;22.60;83.10;;;;;;5094311;28;19920;-56
2022/09/07 11:05:15;;;;;;;;;;;22.60;83.10;;;;;;5094782;28;19953;-53
2022/09/07 11:07:47;;;;;;;;;;;22.60;83.10;;;;;;5094477;28;19987;-54
2022/09/07 11:10:24;;;;;;;;;;;22.60;83.10;;;;;;5094564;28;19912;-52
2022/09/07 11:12:51;;;;;;;;;;;22.60;83.20;;;;;;5093935;28;20317;-54
2022/09/07 11:15:36;;;;;;;;;;;22.60;83.20;;;;;;5094224;28;19969;-54
2022/09/07 11:18:05;;;;;;;;;;;22.60;83.20;;;;;;5093482;28;19947;-55
2022/09/07 11:20:34;;;;;;;;;;;22.60;83.20;;;;;;5093823;28;19909;-56
2022/09/07 11:23:15;;;;;;;;;;;22.60;83.20;;;;;;5094164;28;19908;-55
2022/09/07 11:25:43;;;;;;;;;;;22.60;83.20;;;;;;5094210;28;20003;-54
2022/09/07 11:28:11;;;;;;;;;;;22.60;83.20;;;;;;5093946;28;19908;-55
2022/09/07 11:30:41;;;;;;;;;;;22.60;83.20;;;;;;5092696;28;19957;-53
2022/09/07 11:33:16;;;;;;;;;;;22.60;83.20;;;;;;5093838;28;20342;-56
2022/09/07 11:35:47;;;;;;;;;;;22.60;83.10;;;;;;5093601;28;19908;-55
2022/09/07 11:38:24;;;;;;;;;;;22.60;83.20;;;;;;5094480;28;19961;-55
2022/09/07 11:41:16;;;;;;;;;;;22.60;83.20;;;;;;5093888;28;19908;-57
2022/09/07 11:43:44;;;;;;;;;;;22.60;83.20;;;;;;5089478;28;20371;-57
2022/09/07 11:46:12;;;;;;;;;;;22.60;83.20;;;;;;5093984;28;19951;-57
2022/09/07 11:48:41;;;;;;;;;;;22.60;83.20;;;;;;5094106;28;19987;-58
2022/09/07 11:51:12;;;;;;;;;;;22.60;83.20;;;;;;5093973;28;19963;-57
2022/09/07 11:53:41;;;;;;;;;;;22.60;83.20;;;;;;5095460;28;19919;-58
2022/09/07 11:56:36;;;;;;;;;;;22.60;83.20;;;;;;5097936;28;20363;-54
2022/09/07 11:59:10;;;;;;;;;;;22.60;83.20;;;;;;5088606;28;19912;-54
2022/09/07 12:02:00;;;;;;;;;;;22.60;83.20;;;;;;5097698;28;20420;-53
2022/09/07 12:04:45;;;;;;;;;;;22.60;83.20;;;;;;5096626;28;19927;-54
2022/09/07 12:07:29;;;;;;;;;;;22.60;83.20;;;;;;5097404;28;19908;-53
2022/09/07 12:10:13;;;;;;;;;;;22.60;83.20;;;;;;5097913;28;20317;-52
2022/09/07 12:13:14;;;;;;;;;;;22.60;83.20;;;;;;5097495;28;19942;-55
2022/09/07 12:15:52;;;;;;;;;;;22.60;83.20;;;;;;5055250;28;19909;-56
2022/09/07 12:18:35;;;;;;;;;;;22.60;83.20;;;;;;5091845;28;20046;-56
2022/09/07 12:21:01;;;;;;;;;;;22.60;83.20;;;;;;5097729;28;19949;-50
2022/09/07 12:23:28;;;;;;;;;;;22.60;83.20;;;;;;5097108;28;19908;-56
2022/09/07 12:26:13;;;;;;;;;;;22.60;83.20;;;;;;5097263;28;19908;-53
2022/09/07 12:28:39;;;;;;;;;;;22.60;83.20;;;;;;5096043;28;20011;-56
2022/09/07 12:31:09;;;;;;;;;;;22.60;83.30;;;;;;5097527;28;20369;-55
2022/09/07 12:33:38;;;;;;;;;;;22.60;83.30;;;;;;5097356;28;19912;-55
2022/09/07 12:36:30;;;;;;;;;;;22.60;83.20;;;;;;5097398;28;20240;-54
2022/09/07 12:39:01;;;;;;;;;;;22.60;83.30;;;;;;5080972;28;19908;-55
2022/09/07 12:41:39;;;;;;;;;;;22.60;83.20;;;;;;5095833;28;19908;-55
2022/09/07 12:44:06;;;;;;;;;;;22.60;83.20;;;;;;5097290;28;19916;-56
2022/09/07 12:46:31;;;;;;;;;;;22.70;83.30;;;;;;5096886;28;19912;-56
2022/09/07 12:49:15;;;;;;;;;;;22.70;83.30;;;;;;5097300;28;20270;-56
2022/09/07 12:51:41;;;;;;;;;;;22.60;83.30;;;;;;5097040;28;19965;-54
2022/09/07 12:54:20;;;;;;;;;;;22.60;83.20;;;;;;5096711;28;19912;-56
2022/09/07 12:56:45;;;;;;;;;;;22.60;83.30;;;;;;5096561;28;19912;-53
2022/09/07 12:59:20;;;;;;;;;;;22.70;83.30;;;;;;5096480;28;20467;-53
2022/09/07 13:01:54;;;;;;;;;;;22.70;83.30;;;;;;5097120;28;19946;-55
2022/09/07 13:04:29;;;;;;;;;;;22.70;83.30;;;;;;5096602;28;20373;-56
2022/09/07 13:07:03;;;;;;;;;;;22.70;83.30;;;;;;5096647;28;19915;-51
2022/09/07 13:09:39;;;;;;;;;;;22.70;83.30;;;;;;5096724;28;19912;-53
2022/09/07 13:12:23;;;;;;;;;;;22.70;83.30;;;;;;5096187;28;19965;-55
2022/09/07 13:14:51;;;;;;;;;;;22.70;83.30;;;;;;5096243;28;20359;-56
2022/09/07 13:17:28;;;;;;;;;;;22.70;83.30;;;;;;5096112;28;19908;-55
2022/09/07 13:19:53;;;;;;;;;;;22.70;83.30;;;;;;5095234;28;19915;-55
2022/09/07 13:22:31;;;;;;;;;;;22.70;83.30;;;;;;5096138;28;19908;-54
2022/09/07 13:24:58;;;;;;;;;;;22.70;83.30;;;;;;5094828;28;20377;-56
2022/09/07 13:27:43;;;;;;;;;;;22.70;83.30;;;;;;5094733;28;20252;-57
2022/09/07 13:30:12;;;;;;;;;;;22.70;83.30;;;;;;5095982;28;19962;-54
2022/09/07 13:32:37;;;;;;;;;;;22.70;83.30;;;;;;5096174;28;20377;-53
2022/09/07 13:35:08;;;;;;;;;;;22.70;83.30;;;;;;5095766;28;19912;-55
2022/09/07 13:37:41;;;;;;;;;;;22.70;83.30;;;;;;5096106;28;19908;-53
2022/09/07 13:40:13;;;;;;;;;;;22.70;83.40;;;;;;5096013;28;20382;-55
2022/09/07 13:42:41;;;;;;;;;;;22.70;83.30;;;;;;5095755;28;19912;-53
2022/09/07 13:45:24;;;;;;;;;;;22.70;83.30;;;;;;5095932;28;20479;-56
2022/09/07 13:47:56;;;;;;;;;;;22.60;83.30;;;;;;5095977;28;19908;-52
2022/09/07 13:50:24;;;;;;;;;;;22.70;83.30;;;;;;5095518;28;19915;-54
2022/09/07 13:53:08;;;;;;;;;;;22.70;83.30;;;;;;5096009;28;20061;-54
2022/09/07 13:55:36;;;;;;;;;;;22.70;83.30;;;;;;5095670;28;20015;-56
2022/09/07 13:58:08;;;;;;;;;;;22.60;83.30;;;;;;5095552;28;19912;-54
2022/09/07 14:00:33;;;;;;;;;;;22.70;83.30;;;;;;5095701;28;19908;-54
2022/09/07 14:03:01;;;;;;;;;;;22.70;83.40;;;;;;5095374;28;20019;-56
2022/09/07 14:05:27;;;;;;;;;;;22.70;83.40;;;;;;5094994;28;20451;-55
2022/09/07 14:07:52;;;;;;;;;;;22.70;83.30;;;;;;5095483;28;19947;-54
2022/09/07 14:10:19;;;;;;;;;;;22.70;83.30;;;;;;5095358;28;19908;-57
2022/09/07 14:12:47;;;;;;;;;;;22.70;83.40;;;;;;5095542;28;20380;-57
2022/09/07 14:15:13;;;;;;;;;;;22.70;83.30;;;;;;5094585;28;19908;-54
2022/09/07 14:17:38;;;;;;;;;;;22.70;83.30;;;;;;5095147;28;19908;-52
2022/09/07 14:20:05;;;;;;;;;;;22.70;83.30;;;;;;5095111;28;19908;-55
2022/09/07 14:22:32;;;;;;;;;;;22.70;83.30;;;;;;5095335;28;19908;-53
2022/09/07 14:25:00;;;;;;;;;;;22.70;83.30;;;;;;5094822;28;19909;-54
2022/09/07 14:27:36;;;;;;;;;;;22.70;83.40;;;;;;5094757;28;19908;-53
2022/09/07 14:30:20;;;;;;;;;;;22.70;83.30;;;;;;5095200;28;19908;-54
2022/09/07 14:32:46;;;;;;;;;;;22.70;83.30;;;;;;5095059;28;19969;-54